createdAt,value
2017-09-15T00:29:27.831Z,57.90
2017-09-15T00:30:32.120Z,59.20
2017-09-15T00:31:36.404Z,59.20
2017-09-15T00:32:40.676Z,59.20
2017-09-15T00:33:44.978Z,59.20
2017-09-15T00:34:49.371Z,59.20
2017-09-15T00:35:53.686Z,59.20
2017-09-15T00:36:57.978Z,59.20
2017-09-15T00:38:02.371Z,59.20
2017-09-15T00:39:06.767Z,59.20
2017-09-15T00:40:11.036Z,59.20
2017-09-15T00:41:15.342Z,59.20
2017-09-15T00:42:19.631Z,59.20
2017-09-15T00:43:24.022Z,59.30
2017-09-15T00:44:28.328Z,59.30
2017-09-15T00:45:32.626Z,59.30
2017-09-15T00:46:36.982Z,59.30
2017-09-15T00:47:41.263Z,59.20
2017-09-15T00:48:45.540Z,59.30
2017-09-15T00:49:49.942Z,59.30
2017-09-15T00:50:54.350Z,59.30
2017-09-15T00:51:58.638Z,59.20
2017-09-15T00:53:03.010Z,59.30
2017-09-15T00:54:07.384Z,59.40
2017-09-15T00:55:11.774Z,59.30
2017-09-15T00:56:16.051Z,59.20
2017-09-15T00:57:20.405Z,59.40
2017-09-15T00:58:24.689Z,59.30
2017-09-15T00:59:29.086Z,59.20
2017-09-15T01:00:33.366Z,59.40
2017-09-15T01:01:37.634Z,59.30
2017-09-15T01:02:42.071Z,59.20
2017-09-15T01:03:46.423Z,59.40
2017-09-15T01:04:50.720Z,59.40
2017-09-15T01:05:55.008Z,59.30
2017-09-15T01:06:59.357Z,59.30
2017-09-15T01:08:03.630Z,59.40
2017-09-15T01:09:08.040Z,59.30
2017-09-15T01:10:12.408Z,59.40
2017-09-15T01:11:16.692Z,59.30
2017-09-15T01:12:21.046Z,59.30
2017-09-15T01:13:25.392Z,59.40
2017-09-15T01:14:29.771Z,59.30
2017-09-15T01:15:34.051Z,59.30
2017-09-15T01:16:38.404Z,59.30
2017-09-15T01:17:42.703Z,59.40
2017-09-15T01:18:46.991Z,59.50
2017-09-15T01:19:51.279Z,59.40
2017-09-15T01:20:55.650Z,59.40
2017-09-15T01:21:59.955Z,59.50
2017-09-15T01:23:04.233Z,59.40
2017-09-15T01:24:08.585Z,59.40
2017-09-15T01:25:12.886Z,59.40
2017-09-15T01:26:17.196Z,59.40
2017-09-15T01:27:21.501Z,59.40
2017-09-15T01:28:25.769Z,59.50
2017-09-15T01:29:30.141Z,59.40
2017-09-15T01:30:34.532Z,59.40
2017-09-15T01:31:38.881Z,59.50
2017-09-15T01:32:43.163Z,59.50
2017-09-15T01:33:47.431Z,59.50
2017-09-15T01:34:51.807Z,59.50
2017-09-15T01:35:56.185Z,59.60
2017-09-15T01:37:00.457Z,59.50
2017-09-15T01:38:04.816Z,59.50
2017-09-15T01:39:09.186Z,59.50
2017-09-15T01:40:13.572Z,59.50
2017-09-15T01:41:17.858Z,59.50
2017-09-15T01:42:22.229Z,59.50
2017-09-15T01:43:26.533Z,59.50
2017-09-15T01:44:30.826Z,59.50
2017-09-15T01:45:35.214Z,59.50
2017-09-15T01:46:39.611Z,59.50
2017-09-15T01:47:43.983Z,59.50
2017-09-15T01:48:48.341Z,59.60
2017-09-15T01:49:52.712Z,59.60
2017-09-15T01:50:57.144Z,59.60
2017-09-15T01:52:01.512Z,59.50
2017-09-15T01:53:05.869Z,59.50
2017-09-15T01:54:10.247Z,59.50
2017-09-15T01:55:14.540Z,59.50
2017-09-15T01:56:18.935Z,59.50
2017-09-15T01:57:23.321Z,59.50
2017-09-15T01:58:27.731Z,59.60
2017-09-15T01:59:32.131Z,59.60
2017-09-15T02:00:36.520Z,59.60
2017-09-15T02:01:40.938Z,59.60
2017-09-15T02:02:45.297Z,59.60
2017-09-15T02:03:49.671Z,59.60
2017-09-15T02:04:53.952Z,59.60
2017-09-15T02:05:58.258Z,59.60
2017-09-15T02:07:02.633Z,59.70
2017-09-15T02:08:06.997Z,59.70
2017-09-15T02:09:11.266Z,59.60
2017-09-15T02:10:15.530Z,59.70
2017-09-15T02:11:19.920Z,59.70
2017-09-15T02:12:24.278Z,60.30
2017-09-15T02:13:28.649Z,59.70
2017-09-15T02:14:33.017Z,59.70
2017-09-15T02:15:37.294Z,59.70
2017-09-15T02:16:41.649Z,59.70
2017-09-15T02:17:46.207Z,59.70
2017-09-15T02:18:50.559Z,59.70
2017-09-15T02:19:54.901Z,59.70
2017-09-15T02:20:59.252Z,59.70
2017-09-15T02:22:03.669Z,59.70
2017-09-15T02:23:07.972Z,59.70
2017-09-15T02:24:12.282Z,59.70
2017-09-15T02:25:16.645Z,59.70
2017-09-15T02:26:20.931Z,59.70
2017-09-15T02:27:25.204Z,59.70
2017-09-15T02:28:29.489Z,59.70
2017-09-15T02:29:33.847Z,59.70
2017-09-15T02:30:38.218Z,60.40
2017-09-15T02:31:42.496Z,59.70
2017-09-15T02:32:46.893Z,59.70
2017-09-15T02:33:51.280Z,59.70
2017-09-15T02:34:55.635Z,59.70
2017-09-15T02:35:59.911Z,59.70
2017-09-15T02:37:04.183Z,59.70
2017-09-15T02:38:08.467Z,59.70
2017-09-15T02:39:12.734Z,59.70
2017-09-15T02:40:17.081Z,59.80
2017-09-15T02:41:21.351Z,59.80
2017-09-15T02:42:25.618Z,59.70
2017-09-15T02:43:29.994Z,59.70
2017-09-15T02:44:34.277Z,59.80
2017-09-15T02:45:38.645Z,59.80
2017-09-15T02:46:42.931Z,59.70
2017-09-15T02:47:47.229Z,59.70
2017-09-15T02:48:51.550Z,59.70
2017-09-15T02:49:55.813Z,59.70
2017-09-15T02:51:00.089Z,59.80
2017-09-15T02:52:04.391Z,59.70
2017-09-15T02:53:08.658Z,59.70
2017-09-15T02:54:13.003Z,59.70
2017-09-15T02:55:17.281Z,59.70
2017-09-15T02:56:21.584Z,59.80
2017-09-15T02:57:25.849Z,59.80
2017-09-15T02:58:30.096Z,59.80
2017-09-15T02:59:34.385Z,59.80
2017-09-15T03:00:38.630Z,59.80
2017-09-15T03:01:42.874Z,59.80
2017-09-15T03:02:47.144Z,59.80
2017-09-15T03:03:51.422Z,59.80
2017-09-15T03:04:55.700Z,59.80
2017-09-15T03:05:59.974Z,59.80
2017-09-15T03:07:04.256Z,59.80
2017-09-15T03:08:08.547Z,59.80
2017-09-15T03:09:12.812Z,59.80
2017-09-15T03:10:17.079Z,59.80
2017-09-15T03:11:21.345Z,59.80
2017-09-15T03:12:25.635Z,59.80
2017-09-15T03:13:29.877Z,59.80
2017-09-15T03:14:34.165Z,59.80
2017-09-15T03:15:38.437Z,59.80
2017-09-15T03:16:42.700Z,59.80
2017-09-15T03:17:46.970Z,59.80
2017-09-15T03:18:51.276Z,59.70
2017-09-15T03:19:55.565Z,59.70
2017-09-15T03:20:59.810Z,59.70
2017-09-15T03:22:04.107Z,59.80
2017-09-15T03:23:08.407Z,59.80
2017-09-15T03:24:12.675Z,59.70
2017-09-15T03:25:16.961Z,59.70
2017-09-15T03:26:21.281Z,59.80
2017-09-15T03:27:25.707Z,59.80
2017-09-15T03:28:30.039Z,59.80
2017-09-15T03:29:34.319Z,59.70
2017-09-15T03:30:38.694Z,59.80
2017-09-15T03:31:43.143Z,59.80
2017-09-15T03:32:47.660Z,59.70
2017-09-15T03:33:52.110Z,59.80
2017-09-15T03:34:56.453Z,59.80
2017-09-15T03:36:00.905Z,59.70
2017-09-15T03:37:05.252Z,59.70
2017-09-15T03:38:09.859Z,59.70
2017-09-15T03:39:14.425Z,59.80
2017-09-15T03:40:18.757Z,59.80
2017-09-15T03:41:23.273Z,59.70
2017-09-15T03:42:27.736Z,59.70
2017-09-15T03:43:33.310Z,59.80
2017-09-15T03:44:37.730Z,59.70
2017-09-15T03:45:42.189Z,59.70
2017-09-15T03:46:46.555Z,59.70
2017-09-15T03:47:50.842Z,59.80
2017-09-15T03:48:55.177Z,59.70
2017-09-15T03:49:59.581Z,59.70
2017-09-15T03:51:03.933Z,59.70
2017-09-15T03:52:08.307Z,59.70
2017-09-15T03:53:12.606Z,59.80
2017-09-15T03:54:16.920Z,59.70
2017-09-15T03:55:21.263Z,59.70
2017-09-15T03:56:25.638Z,59.70
2017-09-15T03:57:29.919Z,59.70
2017-09-15T03:58:34.306Z,59.70
2017-09-15T03:59:38.576Z,59.70
2017-09-15T04:00:42.986Z,59.70
2017-09-15T04:01:47.277Z,59.70
2017-09-15T04:02:51.664Z,59.70
2017-09-15T04:03:55.951Z,59.80
2017-09-15T04:05:01.502Z,59.70
2017-09-15T04:06:05.842Z,59.70
2017-09-15T04:07:10.761Z,59.70
2017-09-15T04:08:15.131Z,59.70
2017-09-15T04:09:19.500Z,59.70
2017-09-15T04:10:24.056Z,59.70
2017-09-15T04:11:28.608Z,59.70
2017-09-15T04:12:33.006Z,59.70
2017-09-15T04:13:37.585Z,59.60
2017-09-15T04:14:42.017Z,59.60
2017-09-15T04:15:46.410Z,59.60
2017-09-15T04:16:51.001Z,59.70
2017-09-15T04:17:55.456Z,59.70
2017-09-15T04:18:59.781Z,59.70
2017-09-15T04:20:04.122Z,59.70
2017-09-15T04:21:08.518Z,59.70
2017-09-15T04:22:12.849Z,59.70
2017-09-15T04:23:17.442Z,59.70
2017-09-15T04:24:21.790Z,59.70
2017-09-15T04:25:26.556Z,59.70
2017-09-15T04:26:31.382Z,59.70
2017-09-15T04:27:35.713Z,59.70
2017-09-15T04:28:40.079Z,60.40
2017-09-15T04:29:44.391Z,59.70
2017-09-15T04:30:48.824Z,59.70
2017-09-15T04:31:53.129Z,59.70
2017-09-15T04:32:57.436Z,59.70
2017-09-15T04:34:01.809Z,59.70
2017-09-15T04:35:06.439Z,59.70
2017-09-15T04:36:10.891Z,59.70
2017-09-15T04:37:15.365Z,59.70
2017-09-15T04:38:19.768Z,59.90
2017-09-15T04:39:24.161Z,59.60
2017-09-15T04:40:28.688Z,59.70
2017-09-15T04:41:45.095Z,59.10
2017-09-15T04:42:49.638Z,59.00
2017-09-15T04:43:54.900Z,58.60
2017-09-15T04:44:59.457Z,58.80
2017-09-15T04:46:03.848Z,59.00
2017-09-15T04:47:08.297Z,58.90
2017-09-15T04:48:12.751Z,59.10
2017-09-15T04:49:17.325Z,59.10
2017-09-15T04:50:21.716Z,59.20
2017-09-15T04:51:26.129Z,59.10
2017-09-15T04:52:30.576Z,58.70
2017-09-15T04:53:35.114Z,57.70
2017-09-15T04:54:39.536Z,57.20
2017-09-15T04:55:43.934Z,57.20
2017-09-15T04:56:48.318Z,57.30
2017-09-15T04:57:52.684Z,57.10
2017-09-15T04:58:57.021Z,57.40
2017-09-15T05:00:01.468Z,58.00
2017-09-15T05:01:05.856Z,57.60
2017-09-15T05:02:10.338Z,57.70
2017-09-15T05:03:15.210Z,57.70
2017-09-15T05:04:19.726Z,57.90
2017-09-15T05:05:24.300Z,58.00
2017-09-15T05:06:28.782Z,58.00
2017-09-15T05:07:33.270Z,58.20
2017-09-15T05:08:37.834Z,58.10
2017-09-15T05:09:42.274Z,58.10
2017-09-15T05:10:46.963Z,58.10
2017-09-15T05:11:51.468Z,58.00
2017-09-15T05:12:56.084Z,58.00
2017-09-15T05:14:00.765Z,58.00
2017-09-15T05:15:05.233Z,58.10
2017-09-15T05:16:09.687Z,58.10
2017-09-15T05:17:14.374Z,58.10
2017-09-15T05:18:19.020Z,58.20
2017-09-15T05:19:23.859Z,58.10
2017-09-15T05:20:28.831Z,58.20
2017-09-15T05:21:33.622Z,58.20
2017-09-15T05:22:38.720Z,58.10
2017-09-15T05:23:43.905Z,58.20
2017-09-15T05:24:48.665Z,58.20
2017-09-15T05:25:53.165Z,58.30
2017-09-15T05:26:57.697Z,58.40
2017-09-15T05:28:02.535Z,58.40
2017-09-15T05:29:07.025Z,58.30
2017-09-15T05:30:11.951Z,58.30
2017-09-15T05:31:18.121Z,58.50
2017-09-15T05:32:22.914Z,58.40
2017-09-15T05:33:27.883Z,58.60
2017-09-15T05:34:32.511Z,58.50
2017-09-15T05:35:37.095Z,58.60
2017-09-15T05:36:41.920Z,58.50
2017-09-15T05:37:46.557Z,58.80
2017-09-15T05:38:51.310Z,58.80
2017-09-15T05:39:56.179Z,58.80
2017-09-15T05:41:00.852Z,58.80
2017-09-15T05:42:05.707Z,58.80
2017-09-15T05:43:10.987Z,58.80
2017-09-15T05:44:15.892Z,59.00
2017-09-15T05:45:20.459Z,59.00
2017-09-15T05:46:25.150Z,59.10
2017-09-15T05:47:29.755Z,59.10
2017-09-15T05:48:34.387Z,58.90
2017-09-15T05:49:39.028Z,59.20
2017-09-15T05:50:43.658Z,59.00
2017-09-15T05:51:48.373Z,58.40
2017-09-15T05:52:53.038Z,58.60
2017-09-15T05:53:57.957Z,58.10
2017-09-15T05:55:02.672Z,56.50
2017-09-15T05:56:07.757Z,57.40
2017-09-15T05:57:12.441Z,57.50
2017-09-15T05:58:17.050Z,57.50
2017-09-15T05:59:21.769Z,57.80
2017-09-15T06:00:26.099Z,57.90
2017-09-15T06:01:31.310Z,57.80
2017-09-15T06:02:35.940Z,57.90
2017-09-15T06:03:40.848Z,57.90
2017-09-15T06:04:45.645Z,58.00
2017-09-15T06:05:50.364Z,57.90
2017-09-15T06:06:55.231Z,57.90
2017-09-15T06:08:00.108Z,57.90
2017-09-15T06:09:05.077Z,57.90
2017-09-15T06:10:09.907Z,57.80
2017-09-15T06:11:14.636Z,57.80
2017-09-15T06:12:19.220Z,57.90
2017-09-15T06:13:23.845Z,57.80
2017-09-15T06:14:28.389Z,57.80
2017-09-15T06:15:32.871Z,57.80
2017-09-15T06:16:37.527Z,57.80
2017-09-15T06:17:42.057Z,57.80
2017-09-15T06:18:46.646Z,57.80
2017-09-15T06:19:51.214Z,57.90
2017-09-15T06:20:55.664Z,57.90
2017-09-15T06:22:12.212Z,58.20
2017-09-15T06:23:16.969Z,58.20
2017-09-15T06:24:21.612Z,58.60
2017-09-15T06:25:26.413Z,58.70
2017-09-15T06:26:30.689Z,58.80
2017-09-15T06:27:35.311Z,58.80
2017-09-15T06:28:39.920Z,58.90
2017-09-15T06:29:44.647Z,58.90
2017-09-15T06:30:49.278Z,58.90
2017-09-15T06:31:53.994Z,58.90
2017-09-15T06:32:58.595Z,58.90
2017-09-15T06:34:03.429Z,58.80
2017-09-15T06:35:07.700Z,58.90
2017-09-15T06:36:12.375Z,58.80
2017-09-15T06:37:17.016Z,58.90
2017-09-15T06:38:22.550Z,58.90
2017-09-15T06:39:27.287Z,59.40
2017-09-15T06:40:32.123Z,59.10
2017-09-15T06:41:36.894Z,59.10
2017-09-15T06:42:42.914Z,59.60
2017-09-15T06:43:47.206Z,59.20
2017-09-15T06:44:51.708Z,59.10
2017-09-15T06:45:56.316Z,59.00
2017-09-15T06:47:00.957Z,59.10
2017-09-15T06:48:05.714Z,59.00
2017-09-15T06:49:10.421Z,59.10
2017-09-15T06:50:15.175Z,59.20
2017-09-15T06:51:19.816Z,59.10
2017-09-15T06:52:24.634Z,59.10
2017-09-15T06:53:29.244Z,59.10
2017-09-15T06:54:33.874Z,59.20
2017-09-15T06:55:38.528Z,59.20
2017-09-15T06:56:44.209Z,58.90
2017-09-15T06:57:48.872Z,58.70
2017-09-15T06:58:53.683Z,58.90
2017-09-15T06:59:58.270Z,58.90
2017-09-15T07:01:02.932Z,58.90
2017-09-15T07:02:07.344Z,59.00
2017-09-15T07:03:11.870Z,59.00
2017-09-15T07:04:16.696Z,59.00
2017-09-15T07:05:21.345Z,58.90
2017-09-15T07:06:26.276Z,58.90
2017-09-15T07:07:31.117Z,58.80
2017-09-15T07:08:35.937Z,58.80
2017-09-15T07:09:40.718Z,58.80
2017-09-15T07:10:45.324Z,58.80
2017-09-15T07:11:49.765Z,58.80
2017-09-15T07:12:54.369Z,58.70
2017-09-15T07:13:58.697Z,58.80
2017-09-15T07:15:03.210Z,58.70
2017-09-15T07:16:07.636Z,58.70
2017-09-15T07:17:13.235Z,58.70
2017-09-15T07:18:17.776Z,58.60
2017-09-15T07:19:22.158Z,58.50
2017-09-15T07:20:26.588Z,58.50
2017-09-15T07:21:31.079Z,58.70
2017-09-15T07:22:35.393Z,58.70
2017-09-15T07:23:39.882Z,58.70
2017-09-15T07:24:44.474Z,58.70
2017-09-15T07:25:48.887Z,58.60
2017-09-15T07:26:53.341Z,58.80
2017-09-15T07:27:57.740Z,58.80
2017-09-15T07:29:02.346Z,58.80
2017-09-15T07:30:07.058Z,58.80
2017-09-15T07:31:11.694Z,58.80
2017-09-15T07:32:16.493Z,58.90
2017-09-15T07:33:21.213Z,58.90
2017-09-15T07:34:26.051Z,58.80
2017-09-15T07:35:30.879Z,59.00
2017-09-15T07:36:36.441Z,59.00
2017-09-15T07:37:40.997Z,59.00
2017-09-15T07:38:45.436Z,59.10
2017-09-15T07:39:50.232Z,59.20
2017-09-15T07:40:54.624Z,59.20
2017-09-15T07:41:59.381Z,59.20
2017-09-15T07:43:03.948Z,59.20
2017-09-15T07:44:08.873Z,59.30
2017-09-15T07:45:13.340Z,59.40
2017-09-15T07:46:17.982Z,59.60
2017-09-15T07:47:22.689Z,59.60
2017-09-15T07:48:27.233Z,59.60
2017-09-15T07:49:31.654Z,59.50
2017-09-15T07:50:36.198Z,59.50
2017-09-15T07:51:52.908Z,59.60
2017-09-15T07:52:57.542Z,59.50
2017-09-15T07:54:03.268Z,59.50
2017-09-15T07:55:08.127Z,59.60
2017-09-15T07:56:12.573Z,59.60
2017-09-15T07:57:17.380Z,59.70
2017-09-15T07:58:22.231Z,59.90
2017-09-15T07:59:26.900Z,60.40
2017-09-15T08:00:31.567Z,59.80
2017-09-15T08:01:36.080Z,59.90
2017-09-15T08:02:40.902Z,59.80
2017-09-15T08:03:45.395Z,59.80
2017-09-15T08:04:50.235Z,59.80
2017-09-15T08:05:54.896Z,59.90
2017-09-15T08:07:00.573Z,60.00
2017-09-15T08:08:05.300Z,59.90
2017-09-15T08:09:09.917Z,59.80
2017-09-15T08:10:14.572Z,59.90
2017-09-15T08:11:19.029Z,59.80
2017-09-15T08:12:24.583Z,59.80
2017-09-15T08:13:29.157Z,59.70
2017-09-15T08:14:33.681Z,59.70
2017-09-15T08:15:38.385Z,59.70
2017-09-15T08:16:42.794Z,59.80
2017-09-15T08:17:47.144Z,59.70
2017-09-15T08:18:51.766Z,59.70
2017-09-15T08:19:56.458Z,59.70
2017-09-15T08:21:00.842Z,59.60
2017-09-15T08:22:05.378Z,59.60
2017-09-15T08:23:09.874Z,59.60
2017-09-15T08:24:14.444Z,59.60
2017-09-15T08:25:18.832Z,59.70
2017-09-15T08:26:23.221Z,59.60
2017-09-15T08:27:27.856Z,59.60
2017-09-15T08:28:32.513Z,59.60
2017-09-15T08:29:37.047Z,60.30
2017-09-15T08:30:41.608Z,59.60
2017-09-15T08:31:46.901Z,59.50
2017-09-15T08:32:51.734Z,59.60
2017-09-15T08:33:56.636Z,59.60
2017-09-15T08:35:01.344Z,59.60
2017-09-15T08:36:06.196Z,59.60
2017-09-15T08:37:11.654Z,60.40
2017-09-15T08:38:16.294Z,59.70
2017-09-15T08:39:20.888Z,59.70
2017-09-15T08:40:25.466Z,59.70
2017-09-15T08:41:29.952Z,59.70
2017-09-15T08:42:34.390Z,59.70
2017-09-15T08:43:38.837Z,59.70
2017-09-15T08:44:43.498Z,59.70
2017-09-15T08:45:48.195Z,59.60
2017-09-15T08:46:52.708Z,59.70
2017-09-15T08:47:57.090Z,59.70
2017-09-15T08:49:01.740Z,59.70
2017-09-15T08:50:06.657Z,59.70
2017-09-15T08:51:10.960Z,59.70
2017-09-15T08:52:16.366Z,59.70
2017-09-15T08:53:21.354Z,59.70
2017-09-15T08:54:25.825Z,59.70
2017-09-15T08:55:42.973Z,59.70
2017-09-15T08:56:47.427Z,59.70
2017-09-15T08:57:51.959Z,59.70
2017-09-15T08:58:56.328Z,59.70
2017-09-15T09:00:00.854Z,59.70
2017-09-15T09:01:05.542Z,59.70
2017-09-15T09:02:10.380Z,59.70
2017-09-15T09:03:15.141Z,59.70
2017-09-15T09:04:19.703Z,59.70
2017-09-15T09:05:24.637Z,59.70
2017-09-15T09:06:29.222Z,59.70
2017-09-15T09:07:34.061Z,59.70
2017-09-15T09:08:39.126Z,59.80
2017-09-15T09:09:43.432Z,59.80
2017-09-15T09:10:48.010Z,59.80
2017-09-15T09:11:52.460Z,59.80
2017-09-15T09:12:56.926Z,59.80
2017-09-15T09:14:01.418Z,59.80
2017-09-15T09:15:06.122Z,59.70
2017-09-15T09:16:10.929Z,59.70
2017-09-15T09:17:15.475Z,59.80
2017-09-15T09:18:19.982Z,59.70
2017-09-15T09:19:24.452Z,59.70
2017-09-15T09:20:28.886Z,59.70
2017-09-15T09:21:33.379Z,59.60
2017-09-15T09:22:38.053Z,59.70
2017-09-15T09:23:42.675Z,59.70
2017-09-15T09:24:47.103Z,59.70
2017-09-15T09:25:51.881Z,59.80
2017-09-15T09:26:56.558Z,59.70
2017-09-15T09:28:01.157Z,59.80
2017-09-15T09:29:05.917Z,59.80
2017-09-15T09:30:10.616Z,59.80
2017-09-15T09:31:15.388Z,59.80
2017-09-15T09:32:20.185Z,59.80
2017-09-15T09:33:25.128Z,59.70
2017-09-15T09:34:30.154Z,59.80
2017-09-15T09:35:35.078Z,59.80
2017-09-15T09:36:39.867Z,59.80
2017-09-15T09:37:44.774Z,59.80
2017-09-15T09:38:49.280Z,59.90
2017-09-15T09:39:53.882Z,59.80
2017-09-15T09:40:59.514Z,59.80
2017-09-15T09:42:04.164Z,59.80
2017-09-15T09:43:08.664Z,59.80
2017-09-15T09:44:13.256Z,59.90
2017-09-15T09:45:18.098Z,60.00
2017-09-15T09:46:22.917Z,60.10
2017-09-15T09:47:28.025Z,60.20
2017-09-15T09:48:32.679Z,60.30
2017-09-15T09:49:37.259Z,60.00
2017-09-15T09:50:41.723Z,60.20
2017-09-15T09:51:46.601Z,60.20
2017-09-15T09:52:51.355Z,60.60
2017-09-15T09:53:55.963Z,60.70
2017-09-15T09:55:00.795Z,60.50
2017-09-15T09:56:05.688Z,60.70
2017-09-15T09:57:10.751Z,60.60
2017-09-15T09:58:15.753Z,60.60
2017-09-15T09:59:20.285Z,60.50
2017-09-15T10:00:25.482Z,60.60
2017-09-15T10:01:30.377Z,60.60
2017-09-15T10:02:35.194Z,60.50
2017-09-15T10:03:40.045Z,60.80
2017-09-15T10:04:45.004Z,60.90
2017-09-15T10:05:49.906Z,61.00
2017-09-15T10:06:54.620Z,61.80
2017-09-15T10:07:59.420Z,60.80
2017-09-15T10:09:04.289Z,61.00
2017-09-15T10:10:09.213Z,60.90
2017-09-15T10:11:14.306Z,60.30
2017-09-15T10:12:19.188Z,58.40
2017-09-15T10:13:23.963Z,59.20
2017-09-15T10:14:29.030Z,60.00
2017-09-15T10:15:33.864Z,59.60
2017-09-15T10:16:38.865Z,60.00
2017-09-15T10:17:43.321Z,60.30
2017-09-15T10:18:48.433Z,60.50
2017-09-15T10:19:53.222Z,60.60
2017-09-15T10:20:58.478Z,61.00
2017-09-15T10:22:03.621Z,61.50
2017-09-15T10:23:08.403Z,61.30
2017-09-15T10:24:13.359Z,61.60
2017-09-15T10:25:18.078Z,61.90
2017-09-15T10:26:22.573Z,61.90
2017-09-15T10:27:27.523Z,62.00
2017-09-15T10:28:32.454Z,62.00
2017-09-15T10:29:36.791Z,62.10
2017-09-15T10:30:41.530Z,62.10
2017-09-15T10:31:46.262Z,62.10
2017-09-15T10:32:51.076Z,62.30
2017-09-15T10:33:55.748Z,63.00
2017-09-15T10:35:00.178Z,62.70
2017-09-15T10:36:05.071Z,62.60
2017-09-15T10:37:10.598Z,62.80
2017-09-15T10:38:15.302Z,62.90
2017-09-15T10:39:19.873Z,62.90
2017-09-15T10:40:24.694Z,62.90
2017-09-15T10:41:29.225Z,63.20
2017-09-15T10:42:34.107Z,63.00
2017-09-15T10:43:38.663Z,63.40
2017-09-15T10:44:43.507Z,63.10
2017-09-15T10:45:48.190Z,63.00
2017-09-15T10:46:53.403Z,62.80
2017-09-15T10:47:58.062Z,63.00
2017-09-15T10:49:02.700Z,62.70
2017-09-15T10:50:07.438Z,62.40
2017-09-15T10:51:11.975Z,62.00
2017-09-15T10:52:16.769Z,61.80
2017-09-15T10:53:21.322Z,61.50
2017-09-15T10:54:25.839Z,61.30
2017-09-15T10:55:31.111Z,58.00
2017-09-15T10:56:36.279Z,57.70
2017-09-15T10:57:41.969Z,54.50
2017-09-15T10:58:46.936Z,53.90
2017-09-15T10:59:51.733Z,54.10
2017-09-15T11:00:56.736Z,52.30
2017-09-15T11:02:01.661Z,53.00
2017-09-15T11:03:06.804Z,54.10
2017-09-15T11:04:11.713Z,54.30
2017-09-15T11:05:16.730Z,54.20
2017-09-15T11:06:21.201Z,54.00
2017-09-15T11:07:26.027Z,54.30
2017-09-15T11:08:30.829Z,54.40
2017-09-15T11:09:35.866Z,54.60
2017-09-15T11:10:40.707Z,54.40
2017-09-15T11:11:45.737Z,54.70
2017-09-15T11:12:50.415Z,54.90
2017-09-15T11:13:57.114Z,55.20
2017-09-15T11:15:02.004Z,55.50
2017-09-15T11:16:07.095Z,54.00
2017-09-15T11:17:11.729Z,53.50
2017-09-15T11:18:16.456Z,53.00
2017-09-15T11:19:21.164Z,52.70
2017-09-15T11:20:25.942Z,52.80
2017-09-15T11:21:30.639Z,52.40
2017-09-15T11:22:35.112Z,52.30
2017-09-15T11:23:39.893Z,52.90
2017-09-15T11:24:44.567Z,51.80
2017-09-15T11:25:49.224Z,50.70
2017-09-15T11:26:54.203Z,50.70
2017-09-15T11:27:59.049Z,50.20
2017-09-15T11:29:03.892Z,50.30
2017-09-15T11:30:08.693Z,50.30
2017-09-15T11:31:13.426Z,50.20
2017-09-15T11:32:18.666Z,50.60
2017-09-15T11:33:23.486Z,49.90
2017-09-15T11:34:29.293Z,50.40
2017-09-15T11:35:34.048Z,50.90
2017-09-15T11:36:38.923Z,51.70
2017-09-15T11:37:43.736Z,51.20
2017-09-15T11:38:48.381Z,51.90
2017-09-15T11:39:53.219Z,52.10
2017-09-15T11:40:57.892Z,52.10
2017-09-15T11:42:02.792Z,52.40
2017-09-15T11:43:07.496Z,52.50
2017-09-15T11:44:12.277Z,52.40
2017-09-15T11:45:16.959Z,52.70
2017-09-15T11:46:21.783Z,52.80
2017-09-15T11:47:26.660Z,52.90
2017-09-15T11:48:31.501Z,53.00
2017-09-15T11:49:36.498Z,53.10
2017-09-15T11:50:41.159Z,53.30
2017-09-15T11:51:45.649Z,53.50
2017-09-15T11:52:51.291Z,53.60
2017-09-15T11:53:55.959Z,53.70
2017-09-15T11:55:00.512Z,53.90
2017-09-15T11:56:05.375Z,53.90
2017-09-15T11:57:10.156Z,54.10
2017-09-15T11:58:14.892Z,54.10
2017-09-15T11:59:19.655Z,54.30
2017-09-15T12:00:24.335Z,54.50
2017-09-15T12:01:29.288Z,54.50
2017-09-15T12:02:33.959Z,54.70
2017-09-15T12:03:38.638Z,54.80
2017-09-15T12:04:43.502Z,54.90
2017-09-15T12:05:50.203Z,54.90
2017-09-15T12:06:54.857Z,54.90
2017-09-15T12:07:59.431Z,55.00
2017-09-15T12:09:04.113Z,55.10
2017-09-15T12:10:09.091Z,55.20
2017-09-15T12:11:13.768Z,55.30
2017-09-15T12:12:18.754Z,55.30
2017-09-15T12:13:23.382Z,55.30
2017-09-15T12:14:28.024Z,55.40
2017-09-15T12:15:32.725Z,55.40
2017-09-15T12:16:37.193Z,55.50
2017-09-15T12:17:41.654Z,55.50
2017-09-15T12:18:46.389Z,55.60
2017-09-15T12:19:51.036Z,55.70
2017-09-15T12:20:55.754Z,55.70
2017-09-15T12:22:00.453Z,55.70
2017-09-15T12:23:05.331Z,55.80
2017-09-15T12:24:09.900Z,55.90
2017-09-15T12:25:14.422Z,56.00
2017-09-15T12:26:19.036Z,56.00
2017-09-15T12:27:23.740Z,56.10
2017-09-15T12:28:28.245Z,56.20
2017-09-15T12:29:32.924Z,56.30
2017-09-15T12:30:37.955Z,56.40
2017-09-15T12:31:42.885Z,56.50
2017-09-15T12:32:47.825Z,56.70
2017-09-15T12:33:52.575Z,56.80
2017-09-15T12:34:57.363Z,56.90
2017-09-15T12:36:02.131Z,57.40
2017-09-15T12:37:06.713Z,56.90
2017-09-15T12:38:12.178Z,56.70
2017-09-15T12:39:17.026Z,56.60
2017-09-15T12:40:21.870Z,56.70
2017-09-15T12:41:26.742Z,56.80
2017-09-15T12:42:31.390Z,56.90
2017-09-15T12:43:35.818Z,56.90
2017-09-15T12:44:40.707Z,57.00
2017-09-15T12:45:45.440Z,56.90
2017-09-15T12:46:50.184Z,57.00
2017-09-15T12:47:55.138Z,57.00
2017-09-15T12:49:00.852Z,57.00
2017-09-15T12:50:06.994Z,57.00
2017-09-15T12:51:12.099Z,56.90
2017-09-15T12:52:16.705Z,56.60
2017-09-15T12:53:21.868Z,56.30
2017-09-15T12:54:26.869Z,55.80
2017-09-15T12:55:31.899Z,56.00
2017-09-15T12:56:36.880Z,55.60
2017-09-15T12:57:42.110Z,55.20
2017-09-15T12:58:47.371Z,54.80
2017-09-15T12:59:52.345Z,54.90
2017-09-15T13:00:57.120Z,54.60
2017-09-15T13:02:02.100Z,54.90
2017-09-15T13:03:06.845Z,54.80
2017-09-15T13:04:11.764Z,54.70
2017-09-15T13:05:16.323Z,54.50
2017-09-15T13:06:21.006Z,54.40
2017-09-15T13:07:26.086Z,54.30
